Time;durP1;ratioP1;P1;durP2;ratioP2;P2;SDS_P1;SDS_P2;PMS_P1;PMS_P2;Temp;Humidity;BMP_temperature;BMP_pressure;BME280_temperature;BME280_humidity;BME280_pressure;Samples;Min_cycle;Max_cycle;Signal;HPM_P1;HPM_P2
2022/06/08 00:00:37;;;;;;;;;2.50;2.50;;;;;22.33;47.85;100543.97;2101561;27;47535;-61
2022/06/08 00:01:39;;;;;;;;;2.75;2.75;;;;;22.32;48.08;100543.13;2100297;28;47898;-59
2022/06/08 00:02:42;;;;;;;;;4.75;2.00;;;;;22.32;48.07;100535.00;2095922;28;47645;-61
2022/06/08 00:03:49;;;;;;;;;3.00;2.00;;;;;22.32;48.21;100539.56;2105048;28;47714;-61
2022/06/08 00:04:50;;;;;;;;;3.50;2.50;;;;;22.31;48.53;100529.72;2103430;28;47556;-59
2022/06/08 00:05:50;;;;;;;;;3.00;2.33;;;;;22.30;48.42;100522.59;2103724;28;47154;-60
2022/06/08 00:06:52;;;;;;;;;3.00;3.00;;;;;22.31;48.25;100529.72;2104874;28;48083;-62
2022/06/08 00:07:52;;;;;;;;;2.00;2.00;;;;;22.30;48.29;100528.84;2105000;28;47638;-60
2022/06/08 00:08:53;;;;;;;;;3.33;2.00;;;;;22.30;48.65;100526.16;2095187;28;47827;-60
2022/06/08 00:09:53;;;;;;;;;2.00;2.00;;;;;22.31;48.16;100521.59;2095507;28;47801;-60
2022/06/08 00:10:54;;;;;;;;;3.33;2.33;;;;;22.32;48.59;100524.19;2104983;28;47481;-60
2022/06/08 00:11:54;;;;;;;;;7.00;4.00;;;;;22.31;48.17;100519.75;2105246;28;48005;-61
2022/06/08 00:12:55;;;;;;;;;2.00;2.00;;;;;22.31;48.25;100518.91;2104526;28;47659;-61
2022/06/08 00:13:55;;;;;;;;;4.67;2.00;;;;;22.32;48.53;100509.81;2104643;28;47583;-60
2022/06/08 00:14:56;;;;;;;;;2.00;2.00;;;;;22.32;48.44;100507.09;2105963;27;47530;-59
2022/06/08 00:15:57;;;;;;;;;3.33;2.33;;;;;22.33;48.90;100508.84;2107657;27;47088;-61
2022/06/08 00:16:57;;;;;;;;;2.75;2.25;;;;;22.32;48.58;100509.81;2113593;27;48046;-60
2022/06/08 00:17:58;;;;;;;;;2.00;2.00;;;;;22.31;48.71;100508.94;2107490;27;47654;-60
2022/06/08 00:18:58;;;;;;;;;3.67;2.67;;;;;22.31;48.45;100508.09;2104574;28;48157;-60
2022/06/08 00:19:59;;;;;;;;;1.67;1.33;;;;;22.31;48.48;100499.97;2113088;27;47516;-61
2022/06/08 00:20:59;;;;;;;;;2.00;2.00;;;;;22.30;48.27;100498.25;2113538;27;47096;-60
2022/06/08 00:22:00;;;;;;;;;2.33;2.33;;;;;22.30;48.54;100499.13;2106884;27;47837;-60
2022/06/08 00:23:01;;;;;;;;;2.75;2.75;;;;;22.31;48.31;100499.97;2110366;27;48213;-61
2022/06/08 00:24:01;;;;;;;;;2.67;2.33;;;;;22.29;48.41;100500.09;2106671;27;48044;-60
2022/06/08 00:25:04;;;;;;;;;2.67;1.67;;;;;22.29;48.50;100502.78;2101461;28;47543;-60
2022/06/08 00:26:05;;;;;;;;;1.00;1.00;;;;;22.29;48.61;100500.09;2091821;28;47649;-61
2022/06/08 00:27:06;;;;;;;;;1.25;1.25;;;;;22.29;49.05;100499.22;2095743;27;47606;-61
2022/06/08 00:28:07;;;;;;;;;1.00;1.00;;;;;22.29;48.50;100501.94;2109665;27;47910;-60
2022/06/08 00:29:07;;;;;;;;;2.67;1.67;;;;;22.28;48.52;100501.06;2108313;27;48070;-60
2022/06/08 00:30:09;;;;;;;;;4.33;2.67;;;;;22.27;48.60;100493.09;2106372;27;47135;-61
2022/06/08 00:31:10;;;;;;;;;3.25;3.25;;;;;22.26;48.46;100500.31;2109889;27;48216;-61
2022/06/08 00:32:11;;;;;;;;;2.75;1.25;;;;;22.26;48.82;100494.91;2106948;27;47358;-61
2022/06/08 00:33:11;;;;;;;;;2.33;1.00;;;;;22.24;48.83;100494.19;2105584;27;48133;-61
2022/06/08 00:34:12;;;;;;;;;3.33;3.00;;;;;22.23;49.09;100503.25;2110382;27;47916;-61
2022/06/08 00:35:12;;;;;;;;;2.00;2.00;;;;;22.22;48.57;100501.50;2107943;27;47544;-61
2022/06/08 00:36:13;;;;;;;;;1.00;1.00;;;;;22.21;48.93;100491.69;2112935;27;47928;-61
2022/06/08 00:37:13;;;;;;;;;1.67;1.67;;;;;22.21;48.69;100491.69;2109952;27;47924;-61
2022/06/08 00:38:14;;;;;;;;;2.00;2.00;;;;;22.20;48.99;100500.75;2109755;27;47355;-61
2022/06/08 00:39:14;;;;;;;;;1.33;1.33;;;;;22.21;49.18;100501.63;2112114;27;47684;-61
2022/06/08 00:40:19;;;;;;;;;1.33;1.33;;;;;22.21;48.93;100486.28;2108812;27;47607;-61
2022/06/08 00:41:44;;;;;;;;;2.50;1.25;;;;;22.21;49.10;100482.69;2112191;27;47791;-61
2022/06/08 00:42:44;;;;;;;;;2.00;2.00;;;;;22.20;48.65;100481.84;2112984;27;48031;-61
2022/06/08 00:43:45;;;;;;;;;2.67;1.00;;;;;22.21;48.98;100496.22;2113172;27;47634;-61
2022/06/08 00:44:58;;;;;;;;;1.00;0.00;;;;;22.22;48.79;100487.13;2110611;27;47742;-61
2022/06/08 00:45:59;;;;;;;;;3.50;2.00;;;;;22.20;48.81;100481.84;2113258;27;47870;-60
2022/06/08 00:47:02;;;;;;;;;4.00;2.33;;;;;22.19;48.95;100477.41;2109993;27;46019;-61
2022/06/08 00:48:05;;;;;;;;;4.00;3.00;;;;;22.19;48.84;100477.41;2101109;28;47360;-62
2022/06/08 00:49:37;;;;;;;;;2.50;2.50;;;;;22.18;49.03;100478.41;2104321;27;48239;-60
2022/06/08 00:50:43;;;;;;;;;3.25;3.25;;;;;22.17;48.94;100473.97;2062266;28;47777;-61
2022/06/08 00:51:44;;;;;;;;;2.00;2.00;;;;;22.16;48.71;100474.94;2062366;28;47689;-61
2022/06/08 00:52:46;;;;;;;;;2.00;2.00;;;;;22.15;48.93;100470.53;2062264;28;47445;-61
2022/06/08 00:53:54;;;;;;;;;3.00;3.00;;;;;22.14;48.91;100466.09;2062554;28;48073;-61
2022/06/08 00:55:00;;;;;;;;;5.25;2.75;;;;;22.15;48.72;100466.94;2065612;28;48072;-61
2022/06/08 00:56:04;;;;;;;;;1.50;1.50;;;;;22.13;48.68;100467.06;2068484;28;47539;-61
2022/06/08 00:57:15;;;;;;;;;4.00;4.00;;;;;22.12;48.66;100464.47;2070209;28;47741;-61
2022/06/08 00:58:24;;;;;;;;;2.25;2.25;;;;;22.10;48.75;100464.56;2061459;28;47933;-61
2022/06/08 00:59:24;;;;;;;;;1.75;1.75;;;;;22.09;48.95;100467.38;2062247;28;47880;-59
2022/06/08 01:00:28;;;;;;;;;4.00;2.33;;;;;22.09;48.55;100470.09;2062417;28;48322;-59
2022/06/08 01:01:28;;;;;;;;;2.75;2.00;;;;;22.08;48.58;100474.63;2061514;28;47493;-60
2022/06/08 01:02:29;;;;;;;;;3.00;3.00;;;;;22.07;49.26;100467.50;2054226;28;47585;-60
2022/06/08 01:03:29;;;;;;;;;2.00;2.00;;;;;22.06;48.65;100467.63;2055245;28;47406;-60
2022/06/08 01:04:30;;;;;;;;;1.00;1.00;;;;;22.06;48.92;100459.50;2064645;28;47515;-60
2022/06/08 01:05:35;;;;;;;;;4.50;3.50;;;;;22.04;48.80;100457.75;2061839;28;47103;-60
2022/06/08 01:06:37;;;;;;;;;6.25;2.50;;;;;22.02;48.74;100458.84;2057047;28;47552;-59
2022/06/08 01:07:37;;;;;;;;;3.00;3.00;;;;;22.02;48.80;100458.84;2065390;28;48089;-61
2022/06/08 01:08:58;;;;;;;;;3.00;3.00;;;;;22.02;49.48;100458.84;2065694;28;47393;-58
2022/06/08 01:09:58;;;;;;;;;1.50;1.50;;;;;22.01;49.11;100458.00;2061895;28;47708;-61
2022/06/08 01:11:03;;;;;;;;;2.33;2.33;;;;;22.02;49.36;100457.00;2062010;28;47616;-60
2022/06/08 01:12:14;;;;;;;;;2.00;2.00;;;;;22.02;49.15;100467.81;2062229;28;47663;-60
2022/06/08 01:13:14;;;;;;;;;3.25;3.25;;;;;22.01;49.02;100463.41;2061759;28;47592;-60
2022/06/08 01:14:18;;;;;;;;;1.67;1.67;;;;;22.02;49.62;100456.16;2054458;28;46782;-59
2022/06/08 01:15:23;;;;;;;;;0.75;0.75;;;;;22.01;49.00;100463.41;2055540;28;47418;-60
2022/06/08 01:16:24;;;;;;;;;3.00;3.00;;;;;22.01;49.19;100454.44;2062113;28;46778;-60
2022/06/08 01:17:24;;;;;;;;;1.33;1.33;;;;;21.99;49.04;100468.06;2053771;28;47345;-60
2022/06/08 01:18:24;;;;;;;;;1.00;1.00;;;;;21.97;49.03;100461.88;2054209;28;45628;-60
2022/06/08 01:19:26;;;;;;;;;3.00;2.67;;;;;21.97;49.55;100456.47;2062013;28;47636;-60
2022/06/08 01:20:27;;;;;;;;;1.75;1.75;;;;;21.95;49.00;100455.72;2055110;28;47974;-60
2022/06/08 01:21:27;;;;;;;;;2.75;1.50;;;;;21.94;49.68;100453.13;2054057;28;47724;-60
2022/06/08 01:22:28;;;;;;;;;3.33;3.00;;;;;21.92;49.16;100453.25;2061945;28;47576;-60
2022/06/08 01:23:28;;;;;;;;;3.33;3.33;;;;;21.89;49.31;100450.78;2061885;28;47800;-60
2022/06/08 01:24:30;;;;;;;;;1.67;1.67;;;;;21.89;49.83;100449.91;2062149;28;45144;-60
2022/06/08 01:25:37;;;;;;;;;3.50;2.75;;;;;21.89;49.53;100449.91;2061985;28;47734;-61
2022/06/08 01:26:46;;;;;;;;;1.75;1.75;;;;;21.88;49.35;100453.59;2061985;28;47875;-60
2022/06/08 01:28:02;;;;;;;;;2.75;2.25;;;;;21.87;49.91;100460.84;2083687;28;48674;-61
2022/06/08 01:29:18;;;;;;;;;1.50;1.50;;;;;21.87;49.57;100462.69;2104932;28;47603;-59
2022/06/08 01:30:21;;;;;;;;;3.25;2.25;;;;;21.87;49.66;100459.97;2095892;28;47569;-59
2022/06/08 01:31:47;;;;;;;;;3.75;2.75;;;;;21.86;49.65;100458.25;2101146;28;48125;-59
2022/06/08 01:33:00;;;;;;;;;2.50;2.00;;;;;21.86;49.64;100455.56;2101219;28;48086;-58
2022/06/08 01:34:16;;;;;;;;;3.75;2.25;;;;;21.85;50.28;100446.59;2096018;28;47389;-60
2022/06/08 01:35:34;;;;;;;;;2.00;1.50;;;;;21.85;49.85;100445.69;2096177;28;47588;-59
2022/06/08 01:37:03;;;;;;;;;3.00;2.00;;;;;21.85;50.25;100443.00;2095908;28;47811;-60
2022/06/08 01:38:13;;;;;;;;;2.00;2.00;;;;;21.85;50.13;100449.28;2086508;28;47365;-60
2022/06/08 01:39:36;;;;;;;;;2.25;2.25;;;;;21.84;50.24;100449.38;2097194;28;48275;-59
2022/06/08 01:41:10;;;;;;;;;2.25;1.25;;;;;21.83;50.09;100456.63;2104085;28;48064;-60
2022/06/08 01:42:26;;;;;;;;;3.75;3.00;;;;;21.83;50.19;100445.81;2104298;28;47706;-59
2022/06/08 01:43:39;;;;;;;;;2.75;2.25;;;;;21.82;50.25;100440.53;2104257;28;47437;-59
2022/06/08 01:46:28;;;;;;;;;2.75;1.50;;;;;21.80;50.04;100443.34;2095634;28;47127;-58
2022/06/08 01:47:49;;;;;;;;;1.75;1.75;;;;;21.80;50.13;100439.78;2097958;28;48090;-60
2022/06/08 01:49:25;;;;;;;;;4.75;2.00;;;;;21.80;50.27;100443.34;2104009;28;47548;-59
2022/06/08 01:50:34;;;;;;;;;4.00;3.00;;;;;21.79;50.50;100452.41;2086430;28;48107;-59
2022/06/08 01:51:51;;;;;;;;;2.50;2.50;;;;;21.79;50.13;100448.84;2086606;28;47809;-58
2022/06/08 01:53:05;;;;;;;;;1.75;1.75;;;;;21.78;50.44;100461.50;2084104;28;47510;-58
2022/06/08 01:54:26;;;;;;;;;3.75;2.25;;;;;21.77;50.56;100465.19;2087754;28;46498;-59
2022/06/08 01:55:42;;;;;;;;;4.00;3.75;;;;;21.76;50.88;100468.00;2079467;28;47895;-60
2022/06/08 01:56:54;;;;;;;;;1.75;1.75;;;;;21.74;50.67;100468.97;2088084;28;48095;-60
2022/06/08 01:58:00;;;;;;;;;2.00;2.00;;;;;21.72;50.79;100460.13;2088242;28;47530;-60
2022/06/08 01:59:15;;;;;;;;;3.75;2.00;;;;;21.70;51.09;100459.34;2088349;28;47705;-61
2022/06/08 02:00:32;;;;;;;;;2.75;1.25;;;;;21.69;50.41;100452.22;2088234;28;48195;-60
2022/06/08 02:01:49;;;;;;;;;2.75;2.00;;;;;21.68;50.57;100455.88;2095908;28;47775;-60
2022/06/08 02:03:01;;;;;;;;;3.00;2.00;;;;;21.68;50.84;100447.78;2091101;28;48259;-59
2022/06/08 02:04:10;;;;;;;;;2.25;2.25;;;;;21.66;50.84;100449.75;2088063;28;48341;-61
2022/06/08 02:05:29;;;;;;;;;2.50;1.50;;;;;21.67;51.03;100459.56;2079404;28;48206;-60
2022/06/08 02:06:37;;;;;;;;;2.50;1.25;;;;;21.65;51.57;100447.16;2078806;28;47534;-61
2022/06/08 02:07:48;;;;;;;;;3.00;2.00;;;;;21.65;51.17;100452.56;2088095;28;48036;-60
2022/06/08 02:09:12;;;;;;;;;2.25;2.00;;;;;21.63;51.36;100449.97;2087772;28;48306;-60
2022/06/08 02:10:41;;;;;;;;;1.00;1.00;;;;;21.63;50.98;100446.41;2088292;28;47705;-60
2022/06/08 02:12:03;;;;;;;;;1.50;1.50;;;;;21.59;50.92;100439.47;2079016;28;47801;-60
2022/06/08 02:13:12;;;;;;;;;3.50;2.00;;;;;21.57;51.24;100442.28;2074185;28;48410;-59
2022/06/08 02:14:18;;;;;;;;;3.25;1.00;;;;;21.55;51.49;100427.19;2078542;28;47710;-60
2022/06/08 02:15:25;;;;;;;;;2.75;2.75;;;;;21.54;51.78;100434.41;2085865;28;48152;-60
2022/06/08 02:16:51;;;;;;;;;1.75;1.75;;;;;21.53;51.57;100424.59;2079436;28;48018;-60
2022/06/08 02:17:55;;;;;;;;;3.25;3.00;;;;;21.51;51.97;100431.94;2079869;28;47772;-59
2022/06/08 02:19:01;;;;;;;;;1.00;0.50;;;;;21.50;52.24;100427.53;2084945;28;47466;-60
2022/06/08 02:20:21;;;;;;;;;2.25;2.00;;;;;21.49;52.06;100425.81;2079731;28;47932;-59
2022/06/08 02:21:30;;;;;;;;;1.00;1.00;;;;;21.49;51.90;100427.63;2082191;28;48007;-58
2022/06/08 02:22:55;;;;;;;;;4.50;3.50;;;;;21.48;52.30;100432.16;2088110;28;47639;-60
2022/06/08 02:24:01;;;;;;;;;2.50;1.75;;;;;21.46;51.57;100434.09;2088072;28;47656;-60
2022/06/08 02:25:20;;;;;;;;;1.00;1.00;;;;;21.47;52.16;100432.25;2079674;28;46243;-59
2022/06/08 02:26:34;;;;;;;;;1.00;1.00;;;;;21.45;51.91;100427.84;2081836;28;47504;-58
2022/06/08 02:27:44;;;;;;;;;1.25;1.25;;;;;21.43;52.16;100432.47;2092711;28;47703;-59
2022/06/08 02:28:51;;;;;;;;;2.00;1.25;;;;;21.43;52.38;100434.31;2105539;27;48209;-60
2022/06/08 02:29:58;;;;;;;;;3.00;2.00;;;;;21.42;52.21;100441.56;2106356;27;47491;-59
2022/06/08 02:31:08;;;;;;;;;3.25;3.25;;;;;21.41;51.89;100438.97;2105811;28;47746;-59
2022/06/08 02:35:00;;;;;;;;;1.75;1.75;;;;;21.31;52.54;100446.84;2080107;28;47555;-58
2022/06/08 02:36:09;;;;;;;;;1.75;1.75;;;;;21.29;52.47;100446.09;2079355;28;48027;-58
2022/06/08 02:37:17;;;;;;;;;2.75;2.75;;;;;21.25;52.86;100450.00;2079766;28;47698;-59
2022/06/08 02:38:24;;;;;;;;;2.75;2.75;;;;;21.20;52.54;100440.44;2080364;28;47586;-57
2022/06/08 02:39:30;;;;;;;;;2.50;1.75;;;;;21.18;52.78;100440.56;2081366;28;47648;-59
2022/06/08 02:40:34;;;;;;;;;2.75;2.75;;;;;21.14;53.33;100437.22;2077159;28;47439;-57
2022/06/08 02:41:38;;;;;;;;;1.00;1.00;;;;;21.12;53.37;100435.59;2079657;28;46129;-60
2022/06/08 02:42:52;;;;;;;;;3.25;2.25;;;;;21.10;53.63;100433.00;2081182;28;47507;-57
2022/06/08 02:43:57;;;;;;;;;2.00;2.00;;;;;21.08;54.18;100428.66;2081427;28;48011;-60
2022/06/08 02:45:04;;;;;;;;;1.00;1.00;;;;;21.07;54.54;100433.19;2084913;28;47835;-59
2022/06/08 02:46:22;;;;;;;;;2.25;2.25;;;;;21.06;54.37;100438.72;2080705;28;48062;-60
2022/06/08 02:47:31;;;;;;;;;2.75;2.75;;;;;21.05;54.23;100431.59;2071433;28;47680;-58
2022/06/08 02:48:33;;;;;;;;;2.25;0.25;;;;;21.03;54.45;100431.69;2079771;28;47494;-60
2022/06/08 02:49:35;;;;;;;;;2.00;2.00;;;;;21.01;54.60;100430.09;2079242;28;47366;-59
2022/06/08 02:50:38;;;;;;;;;2.00;1.75;;;;;21.02;54.84;100423.72;2079663;28;47752;-58
2022/06/08 02:51:44;;;;;;;;;3.00;3.00;;;;;21.01;54.58;100425.56;2080597;28;47430;-59
2022/06/08 02:52:47;;;;;;;;;2.25;2.25;;;;;21.00;55.35;100426.53;2081053;28;47932;-59
2022/06/08 02:53:57;;;;;;;;;1.00;1.00;;;;;20.99;54.95;100421.25;2079098;28;47633;-59
2022/06/08 02:54:58;;;;;;;;;2.75;2.75;;;;;20.97;54.13;100428.59;2080718;28;47542;-60
2022/06/08 02:56:22;;;;;;;;;2.00;2.00;;;;;20.97;55.06;100425.88;2080445;28;48118;-59
2022/06/08 02:57:22;;;;;;;;;1.00;1.00;;;;;20.95;54.68;100412.47;2062914;28;48084;-61
2022/06/08 02:58:35;;;;;;;;;1.00;1.00;;;;;20.94;55.25;100415.28;2064179;28;47549;-60
2022/06/08 02:59:49;;;;;;;;;1.25;1.25;;;;;20.93;55.02;100410.84;2063954;28;47897;-60
2022/06/08 03:01:00;;;;;;;;;3.25;3.25;;;;;20.90;54.83;100414.63;2068691;28;47771;-57
2022/06/08 03:02:07;;;;;;;;;3.75;3.25;;;;;20.89;55.44;100412.91;2062853;28;48209;-58
2022/06/08 03:03:16;;;;;;;;;0.25;0.25;;;;;20.87;55.12;100406.75;2064555;28;48106;-61
2022/06/08 03:04:22;;;;;;;;;1.75;1.00;;;;;20.85;54.93;100403.31;2064731;28;48221;-60
2022/06/08 03:05:32;;;;;;;;;2.75;2.00;;;;;20.84;54.54;100407.00;2062293;28;47659;-60
2022/06/08 03:06:43;;;;;;;;;4.00;2.75;;;;;20.82;54.65;100409.75;2062580;28;47473;-59
2022/06/08 03:07:50;;;;;;;;;2.25;2.25;;;;;20.81;55.32;100402.63;2064002;28;47712;-60
2022/06/08 03:08:57;;;;;;;;;2.00;2.00;;;;;20.81;54.95;100397.25;2063928;28;47727;-59
2022/06/08 03:10:02;;;;;;;;;1.25;1.25;;;;;20.80;55.33;100402.75;2063083;28;47881;-59
2022/06/08 03:11:06;;;;;;;;;3.00;2.75;;;;;20.79;55.17;100391.09;2073673;28;47228;-59
2022/06/08 03:12:17;;;;;;;;;1.50;1.50;;;;;20.78;55.31;100393.91;2088962;28;47933;-60
2022/06/08 03:13:30;;;;;;;;;0.25;0.25;;;;;20.77;55.68;100397.56;2095900;28;47903;-58
2022/06/08 03:14:31;;;;;;;;;1.75;1.75;;;;;20.77;55.57;100397.56;2088522;28;47868;-60
2022/06/08 03:15:33;;;;;;;;;2.00;1.00;;;;;20.75;55.38;100394.13;2089163;28;47561;-60
2022/06/08 03:16:50;;;;;;;;;1.00;1.00;;;;;20.72;55.72;100397.91;2087375;28;47639;-62
2022/06/08 03:17:50;;;;;;;;;0.50;0.50;;;;;20.69;56.02;100392.69;2088208;28;47907;-59
2022/06/08 03:18:51;;;;;;;;;2.00;2.00;;;;;20.69;55.66;100389.13;2088879;28;48113;-59
2022/06/08 03:19:51;;;;;;;;;2.67;1.33;;;;;20.67;55.99;100386.56;2088143;28;46661;-60
2022/06/08 03:20:53;;;;;;;;;1.67;1.67;;;;;20.67;55.99;100391.09;2088555;28;47534;-58
2022/06/08 03:21:54;;;;;;;;;2.00;2.00;;;;;20.65;56.25;100387.63;2088993;28;48131;-59
2022/06/08 03:22:55;;;;;;;;;2.25;1.75;;;;;20.61;55.97;100375.34;2087789;28;47472;-58
2022/06/08 03:23:56;;;;;;;;;3.00;2.50;;;;;20.61;55.67;100369.94;2087843;28;48115;-60
2022/06/08 03:24:56;;;;;;;;;3.00;3.00;;;;;20.59;56.51;100371.91;2087457;28;47531;-58
2022/06/08 03:25:57;;;;;;;;;1.33;1.33;;;;;20.57;56.98;100372.84;2087342;28;48293;-59
2022/06/08 03:27:03;;;;;;;;;2.00;2.00;;;;;20.55;56.08;100360.44;2089256;28;47343;-59
2022/06/08 03:28:04;;;;;;;;;4.00;3.25;;;;;20.54;56.21;100356.88;2087085;28;47422;-59
2022/06/08 03:29:05;;;;;;;;;1.00;1.00;;;;;20.54;56.70;100347.94;2087331;28;47662;-60
2022/06/08 03:30:07;;;;;;;;;4.00;2.00;;;;;20.54;56.40;100354.19;2092271;28;48043;-59
2022/06/08 03:31:07;;;;;;;;;1.33;1.33;;;;;20.53;56.67;100346.19;2095033;28;47228;-59
2022/06/08 03:32:08;;;;;;;;;2.00;2.00;;;;;20.53;56.55;100338.13;2095891;28;47837;-60
2022/06/08 03:33:08;;;;;;;;;1.67;1.67;;;;;20.52;56.87;100341.78;2094590;28;47530;-59
2022/06/08 03:34:09;;;;;;;;;2.33;1.33;;;;;20.51;56.66;100337.38;2095777;28;48017;-59
2022/06/08 03:35:10;;;;;;;;;3.67;2.00;;;;;20.51;56.71;100340.91;2104204;27;47890;-59
2022/06/08 03:36:12;;;;;;;;;0.75;0.75;;;;;20.49;57.04;100336.63;2112712;27;47613;-57
2022/06/08 03:37:12;;;;;;;;;2.25;2.25;;;;;20.48;57.25;100338.44;2113693;27;47692;-60
2022/06/08 03:38:12;;;;;;;;;1.67;1.33;;;;;20.47;56.89;100338.56;2110535;27;47522;-60
2022/06/08 03:39:13;;;;;;;;;0.67;0.00;;;;;20.45;56.93;100335.94;2071838;28;48131;-58
2022/06/08 03:40:14;;;;;;;;;1.00;1.00;;;;;20.45;57.05;100344.03;2072934;28;47454;-60
2022/06/08 03:41:15;;;;;;;;;2.00;1.00;;;;;20.46;57.01;100339.53;2099514;28;47151;-59
2022/06/08 03:42:15;;;;;;;;;3.00;1.33;;;;;20.44;57.53;100331.53;2113754;27;47797;-59
2022/06/08 03:43:16;;;;;;;;;1.33;1.33;;;;;20.44;57.33;100338.75;2112200;27;47817;-59
2022/06/08 03:44:16;;;;;;;;;3.00;3.00;;;;;20.42;56.99;100333.47;2112435;27;47599;-60
2022/06/08 03:45:17;;;;;;;;;2.00;2.00;;;;;20.42;57.00;100344.25;2113753;27;47913;-58
2022/06/08 03:46:18;;;;;;;;;2.33;2.00;;;;;20.41;57.64;100337.09;2113712;27;47062;-60
2022/06/08 03:47:25;;;;;;;;;2.67;2.00;;;;;20.41;57.30;100342.47;2112509;27;47689;-59
2022/06/08 03:48:26;;;;;;;;;3.00;3.00;;;;;20.41;57.53;100342.47;2109346;27;47595;-60
2022/06/08 03:49:28;;;;;;;;;2.00;2.00;;;;;20.40;57.71;100339.91;2101506;28;46929;-58
2022/06/08 03:50:30;;;;;;;;;4.00;2.00;;;;;20.39;57.59;100344.44;2103547;27;47985;-60
2022/06/08 03:51:31;;;;;;;;;2.25;2.00;;;;;20.39;57.80;100336.34;2114044;27;47925;-60
2022/06/08 03:52:37;;;;;;;;;1.50;1.50;;;;;20.40;57.90;100342.59;2112566;27;47297;-59
2022/06/08 03:53:47;;;;;;;;;3.50;1.75;;;;;20.40;58.07;100340.75;2110172;27;47594;-60
2022/06/08 03:54:52;;;;;;;;;3.00;2.00;;;;;20.40;58.12;100338.06;2104441;28;47603;-59
2022/06/08 03:55:54;;;;;;;;;2.00;1.00;;;;;20.40;58.30;100346.16;2109950;27;48279;-59
2022/06/08 03:56:59;;;;;;;;;1.25;1.25;;;;;20.40;58.04;100338.06;2109486;27;47933;-58
2022/06/08 03:58:01;;;;;;;;;0.75;0.75;;;;;20.40;58.56;100343.44;2102846;28;47918;-58
2022/06/08 03:59:03;;;;;;;;;1.75;1.75;;;;;20.40;57.89;100338.06;2091218;28;47666;-58
2022/06/08 04:00:06;;;;;;;;;1.00;1.00;;;;;20.40;58.42;100343.44;2094448;28;47189;-62
2022/06/08 04:01:06;;;;;;;;;3.25;2.00;;;;;20.40;58.45;100342.59;2103495;27;47748;-59
2022/06/08 04:02:09;;;;;;;;;1.00;1.00;;;;;20.39;58.11;100347.13;2106845;27;47541;-60
2022/06/08 04:03:11;;;;;;;;;2.75;2.75;;;;;20.39;58.21;100343.56;2113533;27;48112;-60
2022/06/08 04:04:11;;;;;;;;;3.00;3.00;;;;;20.39;58.19;100336.34;2112200;27;48286;-60
2022/06/08 04:05:12;;;;;;;;;1.67;1.67;;;;;20.38;59.10;100334.63;2112276;27;47504;-60
2022/06/08 04:06:13;;;;;;;;;2.00;2.00;;;;;20.38;58.78;100331.91;2113418;27;46655;-59
2022/06/08 04:07:14;;;;;;;;;2.67;2.00;;;;;20.38;59.13;100340.00;2112111;27;47560;-60
2022/06/08 04:08:15;;;;;;;;;1.75;1.75;;;;;20.36;58.95;100335.69;2112323;27;47671;-59
2022/06/08 04:09:16;;;;;;;;;1.67;0.67;;;;;20.37;58.68;100334.72;2113686;27;47664;-59
2022/06/08 04:10:17;;;;;;;;;1.50;1.00;;;;;20.37;59.09;100335.59;2113056;27;48015;-61
2022/06/08 04:11:18;;;;;;;;;2.00;2.00;;;;;20.37;58.80;100337.41;2109007;27;47252;-60
2022/06/08 04:12:22;;;;;;;;;3.25;3.25;;;;;20.37;59.00;100334.72;2112270;27;47499;-60
2022/06/08 04:13:23;;;;;;;;;2.75;2.75;;;;;20.37;59.22;100334.72;2110543;27;48005;-60
2022/06/08 04:14:24;;;;;;;;;2.67;2.67;;;;;20.37;59.06;100337.41;2104918;28;45891;-60
2022/06/08 04:15:43;;;;;;;;;3.33;3.00;;;;;20.36;59.35;100328.47;2105707;27;47855;-60
2022/06/08 04:16:43;;;;;;;;;3.00;3.00;;;;;20.38;59.27;100334.63;2105890;27;47207;-59
2022/06/08 04:17:44;;;;;;;;;3.00;2.67;;;;;20.38;59.19;100329.22;2105600;28;45773;-59
2022/06/08 04:18:44;;;;;;;;;2.00;2.00;;;;;20.38;58.89;100323.84;2106162;27;47837;-60
2022/06/08 04:19:49;;;;;;;;;3.00;3.00;;;;;20.39;58.93;100320.16;2105706;27;47740;-58
2022/06/08 04:20:54;;;;;;;;;1.00;1.00;;;;;20.38;58.65;100318.44;2105186;28;47466;-59
2022/06/08 04:21:54;;;;;;;;;4.50;2.25;;;;;20.39;59.12;100316.59;2108957;27;47218;-58
2022/06/08 04:22:55;;;;;;;;;5.33;4.00;;;;;20.40;59.08;100321.88;2112522;27;47396;-59
2022/06/08 04:23:56;;;;;;;;;2.00;2.00;;;;;20.39;59.05;100320.16;2111606;27;47846;-59
2022/06/08 04:24:59;;;;;;;;;2.75;2.75;;;;;20.40;59.03;100321.88;2108695;27;47323;-59
2022/06/08 04:26:00;;;;;;;;;2.00;2.00;;;;;20.40;59.26;100316.50;2105053;28;47475;-58
2022/06/08 04:27:00;;;;;;;;;3.25;3.25;;;;;20.40;58.80;100316.50;2111125;27;47577;-60
2022/06/08 04:28:01;;;;;;;;;1.33;1.33;;;;;20.40;59.16;100308.41;2111576;27;48037;-60
2022/06/08 04:29:02;;;;;;;;;2.00;2.00;;;;;20.40;59.08;100307.56;2103668;28;47260;-60
2022/06/08 04:30:04;;;;;;;;;1.00;1.00;;;;;20.39;59.30;100306.69;2101871;27;48303;-59
2022/06/08 04:31:05;;;;;;;;;2.00;2.00;;;;;20.39;59.15;100305.81;2111882;27;48044;-59
2022/06/08 04:32:09;;;;;;;;;5.33;2.33;;;;;20.38;59.25;100298.72;2113476;27;47152;-59
2022/06/08 04:33:10;;;;;;;;;2.00;2.00;;;;;20.38;58.94;100293.31;2111287;27;48274;-58
2022/06/08 04:34:12;;;;;;;;;1.00;1.00;;;;;20.38;59.18;100291.50;2113138;27;47400;-61
2022/06/08 04:35:12;;;;;;;;;2.25;2.00;;;;;20.37;59.22;100289.78;2112282;27;48104;-59
2022/06/08 04:36:13;;;;;;;;;3.25;2.00;;;;;20.38;59.09;100293.31;2092503;28;47930;-58
2022/06/08 04:37:37;;;;;;;;;3.75;3.75;;;;;20.38;58.92;100301.41;2093005;27;46634;-58
2022/06/08 04:38:59;;;;;;;;;2.50;2.00;;;;;20.38;59.17;100288.81;2102659;28;46205;-58
2022/06/08 04:40:01;;;;;;;;;1.50;1.50;;;;;20.38;59.28;100290.63;2096781;28;47549;-60
2022/06/08 04:41:02;;;;;;;;;3.33;3.33;;;;;20.37;59.50;100286.22;2088555;28;47617;-59
2022/06/08 04:42:04;;;;;;;;;2.75;2.75;;;;;20.37;59.02;100292.47;2103441;27;47872;-59
2022/06/08 04:43:04;;;;;;;;;1.00;1.00;;;;;20.37;59.19;100286.22;2111171;27;47735;-59
2022/06/08 04:44:05;;;;;;;;;2.00;2.00;;;;;20.35;59.19;100280.94;2102087;28;47439;-59
2022/06/08 04:45:07;;;;;;;;;2.00;1.67;;;;;20.34;58.81;100279.22;2104297;27;48018;-59
2022/06/08 04:46:08;;;;;;;;;2.00;2.00;;;;;20.32;58.84;100280.25;2111042;27;47497;-59
2022/06/08 04:47:08;;;;;;;;;2.00;2.00;;;;;20.31;59.13;100283.94;2106894;27;47459;-58
2022/06/08 04:48:10;;;;;;;;;4.67;4.67;;;;;20.32;59.52;100280.25;2104751;27;47290;-58
2022/06/08 04:49:10;;;;;;;;;2.75;2.75;;;;;20.31;59.72;100279.41;2105381;27;47619;-59
2022/06/08 04:50:11;;;;;;;;;3.67;3.00;;;;;20.29;59.55;100287.59;2105339;27;48415;-59
2022/06/08 04:51:12;;;;;;;;;4.00;2.00;;;;;20.29;59.58;100278.66;2104976;28;47630;-58
2022/06/08 04:52:13;;;;;;;;;3.50;2.25;;;;;20.29;59.93;100278.66;2105281;27;47640;-60
2022/06/08 04:53:13;;;;;;;;;4.33;3.00;;;;;20.29;59.96;100281.34;2096439;28;47751;-61
2022/06/08 04:54:14;;;;;;;;;3.00;2.67;;;;;20.27;59.88;100278.75;2095469;28;48198;-60
2022/06/08 04:55:15;;;;;;;;;3.67;2.67;;;;;20.28;60.17;100282.31;2103908;27;47778;-58
2022/06/08 04:56:17;;;;;;;;;1.50;1.50;;;;;20.27;59.72;100281.44;2105433;27;48043;-61
2022/06/08 04:57:18;;;;;;;;;3.00;3.00;;;;;20.27;59.69;100283.28;2105393;27;47644;-61
2022/06/08 04:58:20;;;;;;;;;4.00;3.67;;;;;20.27;59.48;100267.97;2108106;27;47419;-61
2022/06/08 04:59:21;;;;;;;;;2.00;1.25;;;;;20.28;59.72;100271.53;2104612;28;47832;-61
2022/06/08 05:00:22;;;;;;;;;4.00;3.33;;;;;20.27;60.02;100275.19;2093754;28;47644;-61
2022/06/08 05:01:23;;;;;;;;;2.25;2.25;;;;;20.27;59.33;100267.13;2093932;28;47747;-61
2022/06/08 05:03:42;;;;;;;;;4.25;2.00;;;;;20.26;59.46;100268.94;2102983;27;47395;-58
2022/06/08 05:04:43;;;;;;;;;3.00;3.00;;;;;20.26;60.11;100266.25;2113320;27;47596;-61
2022/06/08 05:05:43;;;;;;;;;5.33;4.00;;;;;20.26;59.75;100270.78;2106314;27;48060;-58
2022/06/08 05:06:45;;;;;;;;;5.00;5.00;;;;;20.25;59.80;100267.22;2097466;28;47649;-60
2022/06/08 05:07:46;;;;;;;;;3.50;3.50;;;;;20.24;59.76;100267.34;2102542;28;47725;-60
2022/06/08 05:08:47;;;;;;;;;3.50;3.50;;;;;20.22;60.21;100262.06;2109535;27;47519;-59
2022/06/08 05:09:47;;;;;;;;;3.00;3.00;;;;;20.20;59.88;100263.09;2113222;27;47269;-60